Time;durP1;ratioP1;P1;durP2;ratioP2;P2;SDS_P1;SDS_P2;PMS_P1;PMS_P2;Temp;Humidity;BMP_temperature;BMP_pressure;BME280_temperature;BME280_humidity;BME280_pressure;Samples;Min_cycle;Max_cycle;Signal;HPM_P1;HPM_P2
2022/12/16 00:00:22;;;;;;;25.40;10.20;;;-2.10;99.90;;;;;;5011345;28;20198;-60
2022/12/16 00:02:48;;;;;;;25.60;10.97;;;;;;;;;;5011612;28;20233;-59
2022/12/16 00:05:13;;;;;;;33.27;10.77;;;-1.90;99.90;;;;;;5011364;28;20217;-60
2022/12/16 00:07:39;;;;;;;25.03;11.30;;;;;;;;;;5011194;28;20697;-59
2022/12/16 00:10:07;;;;;;;18.33;9.00;;;-2.10;99.90;;;;;;5011295;28;20212;-59
2022/12/16 00:12:33;;;;;;;24.37;10.00;;;;;;;;;;5011309;28;20207;-59
2022/12/16 00:14:58;;;;;;;21.13;9.17;;;-2.20;99.90;;;;;;5011401;28;20427;-60
2022/12/16 00:17:24;;;;;;;20.00;9.13;;;;;;;;;;5007636;28;20591;-59
2022/12/16 00:19:50;;;;;;;21.53;8.67;;;-2.20;99.90;;;;;;5002642;28;20651;-59
2022/12/16 00:22:16;;;;;;;28.07;9.17;;;;;;;;;;5011124;28;20179;-58
2022/12/16 00:24:42;;;;;;;22.83;8.27;;;-2.20;99.90;;;;;;5011094;28;20948;-58
2022/12/16 00:27:08;;;;;;;18.60;8.63;;;;;;;;;;5011199;28;20245;-59
2022/12/16 00:29:34;;;;;;;19.83;8.87;;;;;;;;;;5011261;28;20260;-58
2022/12/16 00:32:01;;;;;;;21.00;9.50;;;;;;;;;;5011289;28;20176;-59
2022/12/16 00:34:27;;;;;;;27.27;9.37;;;;;;;;;;5003789;28;20195;-58
2022/12/16 00:36:53;;;;;;;25.90;9.73;;;-2.20;99.90;;;;;;5026845;28;20664;-58
2022/12/16 00:39:19;;;;;;;25.90;9.60;;;;;;;;;;5018621;28;20181;-58
2022/12/16 00:41:46;;;;;;;28.13;10.53;;;-2.60;99.90;;;;;;5015488;28;20252;-58
2022/12/16 00:44:12;;;;;;;26.70;11.20;;;-2.80;99.90;;;;;;5011328;28;20174;-58
2022/12/16 00:46:38;;;;;;;60.50;12.97;;;;;;;;;;5011226;28;20639;-58
2022/12/16 00:49:04;;;;;;;27.70;10.53;;;-2.70;99.90;;;;;;5010858;28;20210;-58
2022/12/16 00:51:30;;;;;;;24.63;8.97;;;-2.90;99.90;;;;;;5010468;28;20229;-58
2022/12/16 00:53:56;;;;;;;19.63;9.10;;;-2.90;99.90;;;;;;5010961;28;20546;-58
2022/12/16 00:56:22;;;;;;;20.40;8.40;;;-2.70;99.90;;;;;;5011000;28;20179;-59
2022/12/16 00:58:49;;;;;;;18.70;8.77;;;;;;;;;;5009831;28;20637;-59
2022/12/16 01:01:14;;;;;;;24.93;9.10;;;-2.60;99.90;;;;;;5011047;28;20174;-59
2022/12/16 01:03:40;;;;;;;21.13;8.60;;;-2.80;99.90;;;;;;5010704;28;20702;-60
2022/12/16 01:06:11;;;;;;;21.53;9.63;;;-2.70;99.90;;;;;;5010777;28;20588;-60
2022/12/16 01:08:37;;;;;;;27.90;10.47;;;-2.80;99.90;;;;;;5010946;28;20201;-59
2022/12/16 01:11:03;;;;;;;19.17;9.83;;;;;;;;;;5010763;28;20221;-60
2022/12/16 01:13:30;;;;;;;16.73;8.57;;;;;;;;;;5010694;28;20257;-59
2022/12/16 01:15:59;;;;;;;18.57;8.00;;;-3.00;99.90;;;;;;5009708;28;20181;-59
2022/12/16 01:18:25;;;;;;;19.60;8.03;;;;;;;;;;5010734;28;20178;-60
2022/12/16 01:20:51;;;;;;;21.07;8.60;;;-3.00;99.90;;;;;;5010805;28;20193;-63
2022/12/16 01:23:17;;;;;;;17.50;8.27;;;;;;;;;;5010698;28;20174;-59
2022/12/16 01:25:43;;;;;;;21.97;9.03;;;-2.90;99.90;;;;;;5010629;28;20261;-59
2022/12/16 01:28:10;;;;;;;23.87;8.50;;;;;;;;;;5009725;28;20261;-59
2022/12/16 01:30:36;;;;;;;16.70;8.50;;;;;;;;;;5004256;28;20267;-58
2022/12/16 01:33:02;;;;;;;21.17;8.90;;;;;;;;;;5010549;28;20530;-59
2022/12/16 01:35:27;;;;;;;19.90;8.80;;;-2.80;99.90;;;;;;5010621;28;20316;-60
2022/12/16 01:37:53;;;;;;;19.80;8.43;;;-2.90;99.90;;;;;;5011888;28;20261;-58
2022/12/16 01:40:21;;;;;;;19.37;8.53;;;-2.80;99.90;;;;;;5014202;28;20174;-58
2022/12/16 01:42:48;;;;;;;19.07;8.73;;;;;;;;;;5014186;28;20175;-58
2022/12/16 01:45:40;;;;;;;19.13;8.10;;;-2.70;99.90;;;;;;5013930;28;20208;-58
2022/12/16 01:48:26;;;;;;;18.23;8.07;;;-3.10;99.90;;;;;;5012492;28;20297;-58
2022/12/16 01:51:01;;;;;;;19.27;8.57;;;-3.10;99.90;;;;;;5013779;28;20206;-58
2022/12/16 01:53:27;;;;;;;17.57;8.70;;;;;;;;;;5012926;28;20228;-58
2022/12/16 01:55:56;;;;;;;15.33;8.20;;;-2.80;99.90;;;;;;5013664;28;20198;-61
2022/12/16 01:58:30;;;;;;;16.80;7.73;;;-3.50;99.90;;;;;;5013754;28;20182;-57
2022/12/16 02:00:57;;;;;;;21.90;8.10;;;-3.40;99.90;;;;;;5008371;28;20190;-58
2022/12/16 02:03:23;;;;;;;21.57;8.63;;;-2.90;99.90;;;;;;5013452;28;20186;-58
2022/12/16 02:05:49;;;;;;;21.10;9.40;;;-3.00;99.90;;;;;;5013685;28;20189;-58
2022/12/16 02:08:18;;;;;;;20.70;8.60;;;-2.90;99.90;;;;;;5013098;28;20174;-58
2022/12/16 02:10:45;;;;;;;21.00;8.73;;;;;;;;;;5013443;28;20719;-58
2022/12/16 02:13:39;;;;;;;16.97;8.53;;;-3.00;99.90;;;;;;5013681;28;20171;-58
2022/12/16 02:16:29;;;;;;;18.63;8.40;;;-3.20;99.90;;;;;;5013503;28;20172;-58
2022/12/16 02:19:05;;;;;;;29.00;8.90;;;-3.00;99.90;;;;;;5013032;28;20187;-58
2022/12/16 02:21:52;;;;;;;22.67;8.87;;;-3.00;99.90;;;;;;4999825;28;20282;-58
2022/12/16 02:24:58;;;;;;;26.47;9.07;;;-3.00;99.90;;;;;;5005767;28;20191;-58
2022/12/16 02:27:24;;;;;;;16.53;8.67;;;;;;;;;;5013422;28;20258;-58
2022/12/16 02:30:05;;;;;;;20.50;9.77;;;-3.00;99.90;;;;;;5013135;28;20764;-58
2022/12/16 02:32:49;;;;;;;23.33;8.93;;;-2.60;99.90;;;;;;5011893;28;20182;-58
2022/12/16 02:35:37;;;;;;;19.63;9.43;;;-3.00;99.90;;;;;;5013055;28;20174;-58
2022/12/16 02:38:11;;;;;;;18.27;9.40;;;-3.50;99.90;;;;;;5012782;28;20178;-58
2022/12/16 02:40:42;;;;;;;25.40;9.53;;;-3.10;99.90;;;;;;5012747;28;20181;-59
2022/12/16 02:43:16;;;;;;;28.60;9.37;;;-2.10;99.90;;;;;;5012707;28;20645;-58
2022/12/16 02:45:43;;;;;;;21.10;8.77;;;-3.20;99.90;;;;;;5012784;28;20170;-58
2022/12/16 02:48:08;;;;;;;22.53;9.67;;;-3.00;99.90;;;;;;4996850;28;20261;-58
2022/12/16 02:50:43;;;;;;;18.40;8.80;;;-3.40;99.90;;;;;;5011497;28;20245;-58
2022/12/16 02:53:09;;;;;;;19.27;9.30;;;-3.40;99.90;;;;;;5012463;28;20636;-58
2022/12/16 02:56:17;;;;;;;24.50;8.63;;;-3.30;99.90;;;;;;5012589;28;20178;-58
2022/12/16 02:58:55;;;;;;;24.90;9.30;;;-3.60;99.90;;;;;;5002973;28;20182;-58
2022/12/16 03:01:21;;;;;;;24.03;8.83;;;;;;;;;;5012242;28;20185;-58
2022/12/16 03:04:01;;;;;;;18.10;9.47;;;-3.30;99.90;;;;;;5012254;28;20249;-58
2022/12/16 03:06:31;;;;;;;20.00;9.50;;;-3.40;99.90;;;;;;5012506;28;20264;-58
2022/12/16 03:08:59;;;;;;;22.23;9.03;;;-3.40;99.90;;;;;;5011975;28;20178;-59
2022/12/16 03:11:28;;;;;;;19.43;9.70;;;-3.40;99.90;;;;;;5012129;28;20210;-59
2022/12/16 03:13:56;;;;;;;24.47;9.93;;;-3.40;99.90;;;;;;5012657;28;20198;-58
2022/12/16 03:16:27;;;;;;;24.47;10.23;;;-3.50;99.90;;;;;;5012364;28;20178;-62
2022/12/16 03:19:05;;;;;;;26.77;10.30;;;-2.20;99.90;;;;;;5005480;28;20163;-58
2022/12/16 03:21:42;;;;;;;27.77;9.37;;;-3.50;99.90;;;;;;5012266;28;20695;-59
2022/12/16 03:24:12;;;;;;;25.07;9.93;;;-3.40;99.90;;;;;;5012346;28;20628;-60
2022/12/16 03:26:58;;;;;;;18.13;9.47;;;-3.40;99.90;;;;;;5012230;28;20244;-60
2022/12/16 03:29:38;;;;;;;21.50;10.33;;;-3.30;99.90;;;;;;4992114;28;20183;-61
2022/12/16 03:32:31;;;;;;;26.70;9.77;;;-3.30;99.90;;;;;;4992689;28;20175;-59
2022/12/16 03:35:12;;;;;;;17.67;9.23;;;-3.30;99.90;;;;;;4991889;28;20187;-59
2022/12/16 03:37:40;;;;;;;29.67;10.47;;;-2.50;99.90;;;;;;4992208;28;20253;-59
2022/12/16 03:40:08;;;;;;;20.97;10.67;;;-3.30;99.90;;;;;;4996398;28;20719;-60
2022/12/16 03:42:36;;;;;;;19.00;9.90;;;-3.30;99.90;;;;;;5012075;28;20186;-60
2022/12/16 03:45:03;;;;;;;27.10;10.07;;;-3.60;99.90;;;;;;5011753;28;20261;-61
2022/12/16 03:47:29;;;;;;;28.87;10.13;;;-3.40;99.90;;;;;;5011488;28;20720;-59
2022/12/16 03:49:55;;;;;;;16.00;9.13;;;-3.60;99.90;;;;;;5011195;28;20301;-59
2022/12/16 03:52:21;;;;;;;21.80;9.93;;;-3.20;99.90;;;;;;5011500;28;20528;-59
2022/12/16 03:54:46;;;;;;;24.93;9.63;;;-3.30;99.90;;;;;;5011431;28;20237;-60
2022/12/16 03:57:12;;;;;;;20.27;10.10;;;;;;;;;;5011558;28;20281;-59
2022/12/16 03:59:38;;;;;;;21.07;9.60;;;;;;;;;;4995740;28;20649;-59
2022/12/16 04:02:05;;;;;;;26.13;10.33;;;;;;;;;;5009647;28;20185;-59
2022/12/16 04:04:30;;;;;;;26.77;10.13;;;-3.60;99.90;;;;;;5011938;28;20645;-59
2022/12/16 04:09:41;;;;;;;23.07;9.53;;;;;;;;;;5011296;28;20721;-59
2022/12/16 04:25:59;;;;;;;24.27;10.67;;;;;;;;;;5010163;28;20274;-58
2022/12/16 04:28:25;;;;;;;19.13;10.50;;;-3.50;99.90;;;;;;5011336;28;20205;-58
2022/12/16 04:30:51;;;;;;;20.60;10.33;;;;;;;;;;5010893;28;20664;-58
